createdAt,value
2019-02-19T00:00:02.596Z,127.25
2019-02-19T00:02:31.414Z,120.00
2019-02-19T00:05:00.288Z,131.97
2019-02-19T00:07:28.787Z,120.53
2019-02-19T00:09:58.466Z,119.28
2019-02-19T00:12:26.842Z,117.75
2019-02-19T00:14:55.459Z,106.50
2019-02-19T00:17:24.034Z,101.70
2019-02-19T00:19:52.451Z,106.75
2019-02-19T00:24:48.775Z,106.25
2019-02-19T00:27:17.219Z,107.50
2019-02-19T00:29:45.635Z,111.62
2019-02-19T00:34:42.039Z,113.15
2019-02-19T00:37:10.477Z,112.37
2019-02-19T00:42:06.715Z,114.35
2019-02-19T00:44:35.433Z,117.75
2019-02-19T00:47:03.857Z,115.57
2019-02-19T00:52:00.541Z,105.20
2019-02-19T00:54:28.999Z,117.25
2019-02-19T00:56:57.425Z,111.17
2019-02-19T00:59:25.932Z,99.83
2019-02-19T01:01:54.593Z,109.75
2019-02-19T01:04:23.075Z,101.87
2019-02-19T01:06:51.594Z,106.67
2019-02-19T01:09:20.071Z,116.65
2019-02-19T01:11:48.672Z,114.32
2019-02-19T01:14:17.136Z,109.72
2019-02-19T01:16:45.573Z,116.53
2019-02-19T01:19:14.249Z,97.42
2019-02-19T01:21:42.834Z,95.65
2019-02-19T01:24:11.456Z,112.32
2019-02-19T01:26:40.101Z,113.37
2019-02-19T01:29:08.533Z,112.17
2019-02-19T01:31:37.151Z,112.35
2019-02-19T01:34:05.693Z,111.72
2019-02-19T01:36:34.173Z,116.37
2019-02-19T01:39:02.755Z,108.70
2019-02-19T01:41:31.695Z,103.22
2019-02-19T01:44:00.477Z,98.85
2019-02-19T01:46:29.188Z,106.20
2019-02-19T01:48:57.741Z,117.37
2019-02-19T01:51:26.257Z,105.45
2019-02-19T01:53:54.865Z,118.17
2019-02-19T01:56:23.530Z,111.80
2019-02-19T01:58:51.981Z,103.62
2019-02-19T02:01:20.435Z,111.92
2019-02-19T02:03:48.978Z,109.67
2019-02-19T02:06:17.481Z,106.52
2019-02-19T02:08:46.046Z,111.08
2019-02-19T02:11:14.546Z,104.87
2019-02-19T02:13:42.970Z,104.12
2019-02-19T02:16:11.419Z,107.12
2019-02-19T02:18:40.091Z,114.30
2019-02-19T02:21:08.603Z,113.37
2019-02-19T02:23:37.205Z,109.87
2019-02-19T02:26:05.622Z,109.83
2019-02-19T02:28:34.162Z,105.83
2019-02-19T02:31:02.809Z,107.15
2019-02-19T02:33:31.378Z,108.72
2019-02-19T02:35:59.887Z,104.78
2019-02-19T02:38:28.641Z,106.43
2019-02-19T02:40:57.587Z,93.95
2019-02-19T02:43:26.239Z,101.02
2019-02-19T02:45:54.705Z,103.53
2019-02-19T02:48:23.213Z,108.72
2019-02-19T02:50:51.693Z,108.50
2019-02-19T02:53:20.277Z,96.35
2019-02-19T02:55:49.033Z,89.87
2019-02-19T02:58:17.549Z,104.72
2019-02-19T03:00:46.135Z,91.12
2019-02-19T03:03:14.626Z,108.72
2019-02-19T03:05:59.034Z,109.85
2019-02-19T03:08:27.659Z,108.60
2019-02-19T03:10:56.220Z,104.80
2019-02-19T03:13:24.889Z,102.78
2019-02-19T03:16:02.186Z,101.02
2019-02-19T03:18:23.641Z,107.95
2019-02-19T03:20:52.255Z,105.65
2019-02-19T03:23:20.801Z,111.55
2019-02-19T03:25:49.295Z,108.63
2019-02-19T03:28:17.753Z,109.78
2019-02-19T03:30:46.207Z,95.50
2019-02-19T03:33:14.769Z,113.70
2019-02-19T03:35:43.370Z,121.72
2019-02-19T03:38:11.882Z,108.57
2019-02-19T03:40:40.537Z,107.87
2019-02-19T03:43:09.071Z,100.92
2019-02-19T03:45:37.502Z,101.95
2019-02-19T03:48:05.992Z,91.95
2019-02-19T03:50:34.539Z,108.47
2019-02-19T03:53:03.077Z,89.72
2019-02-19T03:55:31.562Z,94.30
2019-02-19T03:58:00.119Z,93.45
2019-02-19T04:00:28.591Z,95.60
2019-02-19T04:02:57.405Z,96.63
2019-02-19T04:05:25.902Z,90.38
2019-02-19T04:07:54.658Z,91.08
2019-02-19T04:10:23.411Z,89.03
2019-02-19T04:12:51.983Z,102.45
2019-02-19T04:15:20.603Z,100.80
2019-02-19T04:17:49.232Z,92.37
2019-02-19T04:20:17.790Z,92.50
2019-02-19T04:22:46.200Z,89.83
2019-02-19T04:25:14.691Z,90.80
2019-02-19T04:27:43.259Z,97.53
2019-02-19T04:30:11.816Z,89.87
2019-02-19T04:32:40.251Z,94.45
2019-02-19T04:35:08.980Z,98.35
2019-02-19T04:37:37.829Z,95.62
2019-02-19T04:40:08.000Z,102.67
2019-02-19T04:42:36.695Z,104.55
2019-02-19T04:45:05.541Z,99.97
2019-02-19T04:47:34.059Z,100.92
2019-02-19T04:50:03.241Z,94.58
2019-02-19T04:52:31.949Z,101.30
2019-02-19T04:55:00.362Z,105.58
2019-02-19T04:57:28.840Z,112.72
2019-02-19T04:59:57.362Z,104.50
2019-02-19T05:02:25.935Z,116.33
2019-02-19T05:04:54.606Z,107.63
2019-02-19T05:07:23.091Z,111.62
2019-02-19T05:09:51.705Z,108.72
2019-02-19T05:12:20.271Z,113.05
2019-02-19T05:14:49.040Z,106.17
2019-02-19T05:17:17.440Z,103.00
